createdAt,value
2018-04-02T00:01:40.026Z,100500.36
2018-04-02T00:04:05.882Z,100514.22
2018-04-02T00:06:31.783Z,100511.15
2018-04-02T00:08:57.724Z,100515.03
2018-04-02T00:11:23.569Z,100515.84
2018-04-02T00:13:49.436Z,100523.67
2018-04-02T00:16:15.354Z,100519.77
2018-04-02T00:18:41.305Z,100519.32
2018-04-02T00:21:07.160Z,100522.34
2018-04-02T00:23:33.036Z,100523.61
2018-04-02T00:25:58.884Z,100523.67
2018-04-02T00:28:24.749Z,100533.59
2018-04-02T00:30:50.669Z,100531.06
2018-04-02T00:33:16.531Z,100537.96
2018-04-02T00:35:42.391Z,100536.67
2018-04-02T00:38:08.312Z,100534.07
2018-04-02T00:40:34.148Z,100530.65
2018-04-02T00:42:59.992Z,100527.17
2018-04-02T00:45:25.897Z,100524.14
2018-04-02T00:47:51.745Z,100535.80
2018-04-02T00:50:17.610Z,100531.03
2018-04-02T00:52:43.496Z,100533.20
2018-04-02T00:55:09.346Z,100532.34
2018-04-02T00:57:35.210Z,100536.66
2018-04-02T01:00:01.126Z,100541.77
2018-04-02T01:02:26.968Z,100542.23
2018-04-02T01:04:52.839Z,100536.14
2018-04-02T01:07:18.729Z,100543.91
2018-04-02T01:09:44.605Z,100540.88
2018-04-02T01:12:10.451Z,100545.56
2018-04-02T01:14:36.348Z,100547.67
2018-04-02T01:17:02.204Z,100558.09
2018-04-02T01:19:28.104Z,100561.96
2018-04-02T01:21:54.009Z,100562.84
2018-04-02T01:24:19.876Z,100567.13
2018-04-02T01:26:45.732Z,100574.07
2018-04-02T01:29:11.656Z,100574.49
2018-04-02T01:31:37.509Z,100571.89
2018-04-02T01:34:03.360Z,100577.16
2018-04-02T01:36:29.250Z,100571.97
2018-04-02T01:38:55.129Z,100580.59
2018-04-02T01:41:21.001Z,100575.89
2018-04-02T01:43:46.907Z,100583.25
2018-04-02T01:46:12.773Z,100571.98
2018-04-02T01:48:38.621Z,100579.79
2018-04-02T01:51:04.525Z,100585.45
2018-04-02T01:53:30.380Z,100587.63
2018-04-02T01:55:56.229Z,100595.34
2018-04-02T01:58:22.117Z,100580.22
2018-04-02T02:00:47.993Z,100583.19
2018-04-02T02:03:13.856Z,100589.67
2018-04-02T02:05:45.025Z,100587.91
2018-04-02T02:08:10.885Z,100588.33
2018-04-02T02:10:36.737Z,100595.23
2018-04-02T02:13:02.641Z,100586.48
2018-04-02T02:15:28.505Z,100590.78
2018-04-02T02:17:54.374Z,100595.45
2018-04-02T02:20:20.422Z,100595.41
2018-04-02T02:22:46.309Z,100594.10
2018-04-02T02:25:12.185Z,100596.95
2018-04-02T02:27:38.072Z,100596.98
2018-04-02T02:30:03.966Z,100597.80
2018-04-02T02:32:29.832Z,100595.55
2018-04-02T02:34:55.784Z,100598.06
2018-04-02T02:37:21.621Z,100601.89
2018-04-02T02:39:47.495Z,100602.33
2018-04-02T02:42:13.397Z,100601.47
2018-04-02T02:44:39.284Z,100614.44
2018-04-02T02:47:05.180Z,100613.92
2018-04-02T02:49:31.110Z,100612.55
2018-04-02T02:51:56.974Z,100616.83
2018-04-02T02:54:22.832Z,100628.48
2018-04-02T02:56:48.710Z,100626.72
2018-04-02T02:59:14.577Z,100629.25
2018-04-02T03:01:40.445Z,100636.97
2018-04-02T03:04:06.341Z,100636.02
2018-04-02T03:06:32.204Z,100639.06
2018-04-02T03:08:58.062Z,100635.55
2018-04-02T03:11:23.981Z,100630.27
2018-04-02T03:13:49.857Z,100641.93
2018-04-02T03:16:15.715Z,100634.66
2018-04-02T03:18:41.622Z,100633.72
2018-04-02T03:21:07.537Z,100641.89
2018-04-02T03:23:33.397Z,100642.28
2018-04-02T03:25:59.309Z,100642.64
2018-04-02T03:28:25.168Z,100638.77
2018-04-02T03:30:51.045Z,100646.87
2018-04-02T03:33:16.956Z,100645.50
2018-04-02T03:35:42.817Z,100643.37
2018-04-02T03:38:08.686Z,100639.80
2018-04-02T03:40:34.592Z,100647.17
2018-04-02T03:43:00.453Z,100637.60
2018-04-02T03:45:26.304Z,100649.30
2018-04-02T03:47:52.192Z,100649.95
2018-04-02T03:50:18.070Z,100653.09
2018-04-02T03:52:43.941Z,100660.70
2018-04-02T03:55:09.845Z,100651.66
2018-04-02T03:57:35.710Z,100662.94
2018-04-02T04:00:01.578Z,100656.78
2018-04-02T04:02:27.486Z,100667.08
2018-04-02T04:04:53.341Z,100665.25
2018-04-02T04:07:19.217Z,100670.02
2018-04-02T04:09:45.165Z,100666.19
2018-04-02T04:12:11.017Z,100673.39
2018-04-02T04:14:36.857Z,100675.98
2018-04-02T04:17:02.772Z,100675.49
2018-04-02T04:19:28.616Z,100667.23
2018-04-02T04:21:54.512Z,100668.49
2018-04-02T04:24:20.431Z,100677.48
2018-04-02T04:26:46.312Z,100676.56
2018-04-02T04:29:12.148Z,100674.92
2018-04-02T04:31:38.050Z,100679.25
2018-04-02T04:34:05.005Z,100667.85
2018-04-02T04:36:30.851Z,100667.70
2018-04-02T04:38:56.756Z,100669.51
2018-04-02T04:41:22.612Z,100676.05
2018-04-02T04:43:48.493Z,100671.98
2018-04-02T04:46:14.406Z,100685.78
2018-04-02T04:48:40.272Z,100688.77
2018-04-02T04:51:06.132Z,100688.42
2018-04-02T04:53:32.027Z,100694.39
2018-04-02T04:55:57.889Z,100700.38
2018-04-02T04:58:23.748Z,100704.05
2018-04-02T05:00:49.648Z,100704.35
2018-04-02T05:03:15.524Z,100709.69
2018-04-02T05:05:41.401Z,100705.89
2018-04-02T05:08:07.328Z,100705.86
2018-04-02T05:10:33.178Z,100707.26
2018-04-02T05:12:59.058Z,100700.93
2018-04-02T05:15:24.963Z,100707.89
2018-04-02T05:17:50.827Z,100711.03
2018-04-02T05:20:16.685Z,100709.41
2018-04-02T05:22:42.645Z,100712.81
2018-04-02T05:25:08.514Z,100713.83
2018-04-02T05:27:34.427Z,100718.97
2018-04-02T05:30:00.309Z,100714.79
2018-04-02T05:32:26.165Z,100719.51
2018-04-02T05:34:52.029Z,100716.13
2018-04-02T05:37:17.917Z,100716.66
2018-04-02T05:39:43.949Z,100715.88
2018-04-02T05:42:09.829Z,100725.16
2018-04-02T05:44:35.741Z,100725.70
2018-04-02T05:47:01.600Z,100716.77
2018-04-02T05:49:27.748Z,100725.75
2018-04-02T05:51:53.676Z,100737.51
2018-04-02T05:54:19.612Z,100730.59
2018-04-02T05:56:45.472Z,100735.63
2018-04-02T05:59:11.377Z,100736.48
2018-04-02T06:01:37.699Z,100738.44
2018-04-02T06:04:03.681Z,100735.52
2018-04-02T06:06:29.579Z,100740.83
2018-04-02T06:08:55.444Z,100745.19
2018-04-02T06:11:21.519Z,100745.67
2018-04-02T06:13:47.444Z,100748.37
2018-04-02T06:16:13.315Z,100746.35
2018-04-02T06:18:39.247Z,100742.83
2018-04-02T06:21:05.338Z,100754.55
2018-04-02T06:23:31.266Z,100746.48
2018-04-02T06:25:57.124Z,100746.58
2018-04-02T06:28:23.121Z,100750.16
2018-04-02T06:30:49.086Z,100748.41
2018-04-02T06:33:14.957Z,100746.31
2018-04-02T06:35:40.858Z,100745.02
2018-04-02T06:38:06.725Z,100748.98
2018-04-02T06:40:32.572Z,100749.43
2018-04-02T06:42:59.516Z,100754.14
2018-04-02T06:45:25.374Z,100761.29
2018-04-02T06:47:51.220Z,100755.39
2018-04-02T06:50:17.741Z,100750.41
2018-04-02T06:52:43.725Z,100758.20
2018-04-02T06:55:09.660Z,100761.66
2018-04-02T06:57:35.669Z,100760.13
2018-04-02T07:00:01.557Z,100760.92
2018-04-02T07:02:27.459Z,100767.14
2018-04-02T07:04:53.404Z,100763.45
2018-04-02T07:07:19.350Z,100770.03
2018-04-02T07:09:45.284Z,100763.08
2018-04-02T07:12:11.547Z,100764.82
2018-04-02T07:14:37.517Z,100765.81
2018-04-02T07:17:03.468Z,100759.45
2018-04-02T07:19:29.442Z,100767.28
2018-04-02T07:21:55.300Z,100755.73
2018-04-02T07:24:21.229Z,100766.67
2018-04-02T07:26:47.144Z,100762.37
2018-04-02T07:29:13.043Z,100767.75
2018-04-02T07:31:38.943Z,100771.63
2018-04-02T07:34:04.868Z,100769.21
2018-04-02T07:36:30.725Z,100766.68
2018-04-02T07:38:57.339Z,100766.67
2018-04-02T07:41:23.274Z,100769.50
2018-04-02T07:43:49.153Z,100767.83
2018-04-02T07:46:15.000Z,100772.75
2018-04-02T07:48:40.900Z,100777.06
2018-04-02T07:51:06.754Z,100777.94
2018-04-02T07:53:32.600Z,100776.33
2018-04-02T07:55:58.523Z,100773.34
2018-04-02T07:58:24.360Z,100777.28
2018-04-02T08:00:50.218Z,100776.89
2018-04-02T08:03:16.105Z,100776.98
2018-04-02T08:05:41.945Z,100778.77
2018-04-02T08:08:07.784Z,100797.89
2018-04-02T08:10:33.729Z,100800.06
2018-04-02T08:12:59.595Z,100801.34
2018-04-02T08:15:25.481Z,100806.14
2018-04-02T08:17:51.380Z,100804.84
2018-04-02T08:20:17.257Z,100805.29
2018-04-02T08:22:43.137Z,100803.55
2018-04-02T08:25:09.171Z,100816.16
2018-04-02T08:27:35.017Z,100810.06
2018-04-02T08:30:00.868Z,100813.09
2018-04-02T08:32:26.823Z,100815.72
2018-04-02T08:34:52.656Z,100814.00
2018-04-02T08:37:18.512Z,100804.86
2018-04-02T08:39:44.421Z,100821.77
2018-04-02T08:42:11.112Z,100810.04
2018-04-02T08:44:37.414Z,100813.86
2018-04-02T08:47:03.493Z,100816.36
2018-04-02T08:49:29.345Z,100816.83
2018-04-02T08:51:55.217Z,100814.58
2018-04-02T08:54:21.142Z,100806.94
2018-04-02T08:56:47.018Z,100801.23
2018-04-02T08:59:12.881Z,100803.83
2018-04-02T09:01:38.893Z,100810.73
2018-04-02T09:04:04.745Z,100814.23
2018-04-02T09:06:30.597Z,100808.89
2018-04-02T09:08:56.506Z,100805.24
2018-04-02T09:11:22.358Z,100817.60
2018-04-02T09:13:48.222Z,100807.59
2018-04-02T09:16:14.181Z,100804.99
2018-04-02T09:18:40.049Z,100800.78
2018-04-02T09:21:05.935Z,100797.55
2018-04-02T09:23:31.851Z,100796.83
2018-04-02T09:25:57.790Z,100787.77
2018-04-02T09:28:23.666Z,100789.30
2018-04-02T09:30:49.693Z,100791.84
2018-04-02T09:33:15.571Z,100788.54
2018-04-02T09:35:41.440Z,100794.42
2018-04-02T09:38:07.363Z,100788.91
2018-04-02T09:40:33.235Z,100776.65
2018-04-02T09:42:59.097Z,100774.28
2018-04-02T09:45:25.000Z,100774.33
2018-04-02T09:47:50.857Z,100769.01
2018-04-02T09:50:16.712Z,100778.17
2018-04-02T09:52:42.613Z,100776.78
2018-04-02T09:55:08.505Z,100780.24
2018-04-02T09:57:34.367Z,100777.25
2018-04-02T10:00:00.264Z,100782.05
2018-04-02T10:02:26.140Z,100771.34
2018-04-02T10:04:55.100Z,100773.83
2018-04-02T10:07:20.950Z,100778.33
2018-04-02T10:09:46.817Z,100765.22
2018-04-02T10:12:12.736Z,100772.25
2018-04-02T10:14:38.680Z,100764.62
2018-04-02T10:17:04.693Z,100773.14
2018-04-02T10:19:30.570Z,100757.73
2018-04-02T10:21:56.479Z,100763.17
2018-04-02T10:24:22.341Z,100764.34
2018-04-02T10:26:48.259Z,100761.40
2018-04-02T10:29:14.250Z,100764.64
2018-04-02T10:31:40.069Z,100757.52
2018-04-02T10:34:05.933Z,100746.64
2018-04-02T10:36:31.839Z,100755.81
2018-04-02T10:38:57.701Z,100752.36
2018-04-02T10:41:23.556Z,100760.33
2018-04-02T10:43:49.476Z,100754.83
2018-04-02T10:46:15.336Z,100751.45
2018-04-02T10:48:41.216Z,100743.66
2018-04-02T10:51:07.125Z,100750.08
2018-04-02T10:53:32.990Z,100732.53
2018-04-02T10:55:58.871Z,100746.78
2018-04-02T10:58:24.772Z,100733.26
2018-04-02T11:00:50.652Z,100733.28
2018-04-02T11:03:16.521Z,100725.66
2018-04-02T11:05:42.448Z,100728.37
2018-04-02T11:08:08.349Z,100722.70
2018-04-02T11:10:34.209Z,100721.67
2018-04-02T11:13:00.107Z,100719.77
2018-04-02T11:15:25.990Z,100721.53
2018-04-02T11:17:51.870Z,100718.23
2018-04-02T11:20:17.815Z,100716.02
2018-04-02T11:22:43.692Z,100720.88
2018-04-02T11:25:09.576Z,100716.15
2018-04-02T11:27:35.551Z,100717.98
2018-04-02T11:30:01.430Z,100717.76
2018-04-02T11:32:27.309Z,100710.41
2018-04-02T11:34:53.225Z,100711.70
2018-04-02T11:37:19.080Z,100703.09
2018-04-02T11:39:44.946Z,100703.87
2018-04-02T11:42:10.853Z,100700.40
2018-04-02T11:44:36.735Z,100693.84
2018-04-02T11:47:02.617Z,100697.55
2018-04-02T11:49:28.535Z,100704.63
2018-04-02T11:51:54.413Z,100698.79
2018-04-02T11:54:20.285Z,100696.47
2018-04-02T11:56:46.181Z,100696.47
2018-04-02T11:59:12.089Z,100687.42
2018-04-02T12:01:37.982Z,100693.49
2018-04-02T12:04:03.898Z,100691.73
2018-04-02T12:06:29.885Z,100697.05
2018-04-02T12:08:55.755Z,100688.27
2018-04-02T12:11:21.654Z,100689.69
2018-04-02T12:13:47.537Z,100689.81
2018-04-02T12:16:13.437Z,100697.66
2018-04-02T12:18:39.355Z,100681.13
2018-04-02T12:21:05.245Z,100691.05
2018-04-02T12:23:31.093Z,100683.21
2018-04-02T12:25:57.044Z,100686.54
2018-04-02T12:28:22.996Z,100677.80
2018-04-02T12:30:48.889Z,100673.39
2018-04-02T12:33:14.797Z,100671.61
2018-04-02T12:35:40.675Z,100671.49
2018-04-02T12:38:06.541Z,100668.81
2018-04-02T12:40:32.647Z,100666.48
2018-04-02T12:42:58.536Z,100669.39
2018-04-02T12:45:24.411Z,100668.70
2018-04-02T12:47:50.348Z,100671.89
2018-04-02T12:50:16.257Z,100655.33
2018-04-02T12:52:42.199Z,100649.70
2018-04-02T12:55:08.119Z,100652.47
2018-04-02T12:57:34.009Z,100655.01
2018-04-02T12:59:59.971Z,100649.97
2018-04-02T13:02:25.864Z,100655.57
2018-04-02T13:04:51.837Z,100645.91
2018-04-02T13:07:17.689Z,100650.13
2018-04-02T13:09:43.937Z,100644.84
2018-04-02T13:12:09.815Z,100654.06
2018-04-02T13:14:35.676Z,100651.06
2018-04-02T13:17:01.691Z,100649.29
2018-04-02T13:19:27.665Z,100645.98
2018-04-02T13:21:53.521Z,100641.66
2018-04-02T13:24:19.447Z,100638.38
2018-04-02T13:26:45.313Z,100641.09
2018-04-02T13:29:11.271Z,100627.66
2018-04-02T13:31:37.253Z,100625.55
2018-04-02T13:34:03.099Z,100620.75
2018-04-02T13:36:28.977Z,100617.66
2018-04-02T13:38:54.889Z,100621.20
2018-04-02T13:41:20.851Z,100620.34
2018-04-02T13:43:46.779Z,100619.77
2018-04-02T13:46:12.697Z,100616.00
2018-04-02T13:48:38.574Z,100622.50
2018-04-02T13:51:04.440Z,100620.31
2018-04-02T13:53:30.418Z,100613.19
2018-04-02T13:55:56.282Z,100610.98
2018-04-02T13:58:22.270Z,100614.84
2018-04-02T14:00:48.176Z,100617.11
2018-04-02T14:03:14.050Z,100608.78
2018-04-02T14:05:39.934Z,100605.40
2018-04-02T14:08:05.854Z,100607.70
2018-04-02T14:10:31.841Z,100617.91
2018-04-02T14:12:57.712Z,100598.77
2018-04-02T14:15:23.635Z,100599.99
2018-04-02T14:17:49.513Z,100593.03
2018-04-02T14:20:15.407Z,100593.84
2018-04-02T14:22:41.354Z,100598.61
2018-04-02T14:25:07.242Z,100589.78
2018-04-02T14:27:33.146Z,100591.42
2018-04-02T14:29:59.064Z,100590.56
2018-04-02T14:32:24.953Z,100587.67
2018-04-02T14:34:50.869Z,100595.23
2018-04-02T14:37:16.802Z,100583.28
2018-04-02T14:39:42.704Z,100584.00
2018-04-02T14:42:08.671Z,100574.83
2018-04-02T14:44:34.597Z,100576.42
2018-04-02T14:47:00.533Z,100559.84
2018-04-02T14:49:26.483Z,100560.28
2018-04-02T14:51:52.418Z,100566.83
2018-04-02T14:54:18.421Z,100562.88
2018-04-02T14:56:44.284Z,100569.05
2018-04-02T14:59:10.198Z,100557.61
2018-04-02T15:01:36.058Z,100561.81
2018-04-02T15:04:01.955Z,100555.08
2018-04-02T15:06:27.906Z,100549.50
2018-04-02T15:08:53.801Z,100539.13
2018-04-02T15:11:19.694Z,100542.92
2018-04-02T15:13:45.605Z,100549.16
2018-04-02T15:16:11.592Z,100547.72
2018-04-02T15:18:37.482Z,100547.28
2018-04-02T15:21:03.404Z,100536.42
2018-04-02T15:23:29.285Z,100535.30
2018-04-02T15:25:55.273Z,100537.45
2018-04-02T15:28:21.226Z,100531.37
2018-04-02T15:30:47.089Z,100532.47
2018-04-02T15:33:12.967Z,100538.15
2018-04-02T15:35:38.927Z,100532.17
2018-04-02T15:38:04.790Z,100532.75
2018-04-02T15:40:30.673Z,100528.08
2018-04-02T15:42:56.614Z,100525.32
2018-04-02T15:45:23.437Z,100524.83
2018-04-02T15:47:49.319Z,100521.09
2018-04-02T15:50:15.213Z,100517.80
2018-04-02T15:52:41.318Z,100517.09
2018-04-02T15:55:07.245Z,100516.72
2018-04-02T15:57:33.145Z,100509.30
2018-04-02T15:59:59.022Z,100513.55
2018-04-02T16:02:24.884Z,100511.34
2018-04-02T16:04:50.791Z,100501.78
2018-04-02T16:07:16.819Z,100507.22
2018-04-02T16:09:42.690Z,100506.51
2018-04-02T16:12:08.605Z,100499.05
2018-04-02T16:14:34.459Z,100497.94
2018-04-02T16:17:00.362Z,100490.98
2018-04-02T16:19:26.440Z,100489.45
2018-04-02T16:21:52.334Z,100484.59
2018-04-02T16:24:18.207Z,100479.80
2018-04-02T16:26:44.117Z,100477.13
2018-04-02T16:29:10.075Z,100477.69
2018-04-02T16:31:35.946Z,100481.19
2018-04-02T16:34:01.855Z,100478.39
2018-04-02T16:36:27.783Z,100482.73
2018-04-02T16:38:53.716Z,100479.20
2018-04-02T16:41:19.667Z,100482.41
2018-04-02T16:43:46.150Z,100480.84
2018-04-02T16:46:12.057Z,100478.47
2018-04-02T16:48:38.006Z,100483.16
2018-04-02T16:51:03.919Z,100482.72
2018-04-02T16:53:29.793Z,100484.98
2018-04-02T16:55:55.991Z,100482.33
2018-04-02T16:58:21.890Z,100482.24
2018-04-02T17:00:47.858Z,100489.08
2018-04-02T17:03:13.911Z,100489.68
2018-04-02T17:05:39.821Z,100482.94
2018-04-02T17:08:06.002Z,100478.22
2018-04-02T17:10:31.900Z,100477.53
2018-04-02T17:12:57.821Z,100481.14
2018-04-02T17:15:23.727Z,100478.33
2018-04-02T17:17:49.964Z,100470.57
2018-04-02T17:20:15.895Z,100477.70
2018-04-02T17:22:41.815Z,100473.13
2018-04-02T17:25:07.904Z,100473.56
2018-04-02T17:27:34.226Z,100475.25
2018-04-02T17:30:00.212Z,100472.18
2018-04-02T17:32:26.378Z,100471.37
2018-04-02T17:34:52.313Z,100476.78
2018-04-02T17:37:18.222Z,100481.78
2018-04-02T17:39:44.628Z,100484.77
2018-04-02T17:42:10.496Z,100487.91
2018-04-02T17:44:36.363Z,100482.28
2018-04-02T17:47:02.328Z,100478.79
2018-04-02T17:49:28.210Z,100476.63
2018-04-02T17:51:54.472Z,100482.90
2018-04-02T17:54:20.465Z,100470.05
2018-04-02T17:56:46.468Z,100472.78
2018-04-02T17:59:12.359Z,100475.58
2018-04-02T18:01:38.409Z,100473.86
2018-04-02T18:04:04.282Z,100463.91
2018-04-02T18:06:30.159Z,100473.25
2018-04-02T18:08:56.129Z,100477.19
2018-04-02T18:11:22.065Z,100478.04
2018-04-02T18:13:47.941Z,100478.98
2018-04-02T18:16:13.873Z,100466.69
2018-04-02T18:18:39.745Z,100474.70
2018-04-02T18:21:05.824Z,100472.52
2018-04-02T18:23:32.069Z,100475.48
2018-04-02T18:25:57.934Z,100469.48
2018-04-02T18:28:24.283Z,100461.45
2018-04-02T18:30:50.217Z,100458.13
2018-04-02T18:33:16.341Z,100455.56
2018-04-02T18:35:42.197Z,100447.26
2018-04-02T18:38:08.123Z,100456.09
2018-04-02T18:40:34.003Z,100446.39
2018-04-02T18:42:59.901Z,100446.95
2018-04-02T18:45:25.946Z,100442.25
2018-04-02T18:47:51.806Z,100447.36
2018-04-02T18:50:17.670Z,100435.48
2018-04-02T18:52:43.602Z,100426.29
2018-04-02T18:55:09.468Z,100427.20
2018-04-02T18:57:35.531Z,100421.06
2018-04-02T19:00:01.428Z,100421.37
2018-04-02T19:02:27.268Z,100423.94
2018-04-02T19:04:53.181Z,100419.63
2018-04-02T19:07:19.097Z,100419.77
2018-04-02T19:09:45.004Z,100407.55
2018-04-02T19:12:10.864Z,100415.05
2018-04-02T19:14:36.760Z,100412.45
2018-04-02T19:17:02.630Z,100410.75
2018-04-02T19:19:28.476Z,100416.05
2018-04-02T19:21:54.373Z,100421.77
2018-04-02T19:24:20.220Z,100427.02
2018-04-02T19:26:46.072Z,100421.39
2018-04-02T19:29:11.957Z,100422.19
2018-04-02T19:31:38.176Z,100419.98
2018-04-02T19:34:04.024Z,100417.84
2018-04-02T19:36:29.931Z,100416.58
2018-04-02T19:38:55.812Z,100415.80
2018-04-02T19:41:21.660Z,100412.37
2018-04-02T19:43:47.560Z,100403.62
2018-04-02T19:46:13.944Z,100410.71
2018-04-02T19:48:39.825Z,100413.45
2018-04-02T19:51:05.751Z,100410.03
2018-04-02T19:53:31.611Z,100405.30
2018-04-02T19:55:57.472Z,100400.99
2018-04-02T19:58:23.359Z,100395.78
2018-04-02T20:00:49.243Z,100391.97
2018-04-02T20:03:15.109Z,100390.53
2018-04-02T20:05:41.013Z,100384.97
2018-04-02T20:08:06.940Z,100386.34
2018-04-02T20:10:32.857Z,100379.00
2018-04-02T20:12:58.998Z,100367.58
2018-04-02T20:15:24.903Z,100367.67
2018-04-02T20:17:50.786Z,100366.80
2018-04-02T20:20:16.782Z,100362.00
2018-04-02T20:22:42.653Z,100360.85
2018-04-02T20:25:08.522Z,100362.17
2018-04-02T20:27:34.415Z,100357.45
2018-04-02T20:30:00.270Z,100363.59
2018-04-02T20:32:26.150Z,100365.33
2018-04-02T20:34:52.037Z,100356.52
2018-04-02T20:37:17.880Z,100359.64
2018-04-02T20:39:43.728Z,100357.83
2018-04-02T20:42:09.800Z,100355.64
2018-04-02T20:44:35.645Z,100361.71
2018-04-02T20:47:01.554Z,100350.38
2018-04-02T20:49:27.483Z,100344.67
2018-04-02T20:51:53.372Z,100348.61
2018-04-02T20:54:19.238Z,100340.74
2018-04-02T20:56:45.148Z,100346.41
2018-04-02T20:59:11.005Z,100336.39
2018-04-02T21:01:36.974Z,100340.34
2018-04-02T21:04:02.968Z,100332.95
2018-04-02T21:06:28.883Z,100334.70
2018-04-02T21:08:54.773Z,100329.80
2018-04-02T21:11:20.748Z,100325.44
2018-04-02T21:13:46.601Z,100323.34
2018-04-02T21:16:12.450Z,100315.98
2018-04-02T21:18:38.349Z,100316.06
2018-04-02T21:21:04.196Z,100312.59
2018-04-02T21:23:30.049Z,100307.39
2018-04-02T21:25:55.955Z,100307.91
2018-04-02T21:28:22.149Z,100310.45
2018-04-02T21:30:48.045Z,100306.51
2018-04-02T21:33:13.941Z,100303.02
2018-04-02T21:35:39.809Z,100291.20
2018-04-02T21:38:05.659Z,100289.07
2018-04-02T21:40:31.544Z,100283.41
2018-04-02T21:42:57.414Z,100285.25
2018-04-02T21:45:23.341Z,100284.45
2018-04-02T21:47:49.236Z,100277.92
2018-04-02T21:50:15.093Z,100272.31
2018-04-02T21:52:40.953Z,100267.60
2018-04-02T21:55:06.854Z,100257.66
2018-04-02T21:57:32.716Z,100259.38
2018-04-02T21:59:58.606Z,100248.94
2018-04-02T22:02:24.584Z,100246.02
2018-04-02T22:04:50.449Z,100239.97
2018-04-02T22:07:19.193Z,100238.23
2018-04-02T22:09:45.327Z,100239.12
2018-04-02T22:12:11.208Z,100233.57
2018-04-02T22:14:37.077Z,100236.75
2018-04-02T22:17:02.981Z,100233.28
2018-04-02T22:19:28.838Z,100233.41
2018-04-02T22:21:54.741Z,100230.34
2018-04-02T22:24:20.658Z,100225.67
2018-04-02T22:26:46.541Z,100229.61
2018-04-02T22:29:12.412Z,100212.71
2018-04-02T22:31:38.321Z,100220.59
2018-04-02T22:34:04.222Z,100212.86
2018-04-02T22:36:30.123Z,100217.23
2018-04-02T22:38:56.009Z,100205.47
2018-04-02T22:41:21.889Z,100198.62
2018-04-02T22:43:47.757Z,100200.39
2018-04-02T22:46:13.663Z,100195.62
2018-04-02T22:48:39.537Z,100189.52
2018-04-02T22:51:05.438Z,100188.27
2018-04-02T22:53:31.353Z,100173.02
2018-04-02T22:55:57.231Z,100174.91
2018-04-02T22:58:23.098Z,100173.14
2018-04-02T23:00:49.016Z,100164.48
2018-04-02T23:03:14.949Z,100165.75
2018-04-02T23:05:40.801Z,100157.02
2018-04-02T23:08:06.713Z,100154.38
2018-04-02T23:10:32.593Z,100151.75
2018-04-02T23:12:58.454Z,100159.64
2018-04-02T23:15:24.363Z,100147.91
2018-04-02T23:17:50.249Z,100144.88
2018-04-02T23:20:16.280Z,100137.39
2018-04-02T23:22:51.446Z,100126.52
2018-04-02T23:25:17.326Z,100126.50
2018-04-02T23:27:43.184Z,100123.03
2018-04-02T23:30:09.149Z,100128.31
2018-04-02T23:32:35.025Z,100119.09
2018-04-02T23:35:00.888Z,100121.72
2018-04-02T23:37:26.796Z,100121.72
2018-04-02T23:39:52.661Z,100113.89
2018-04-02T23:42:18.508Z,100121.63
2018-04-02T23:44:44.405Z,100111.63
2018-04-02T23:47:10.261Z,100117.57
2018-04-02T23:49:36.116Z,100118.77
2018-04-02T23:52:02.024Z,100117.38
2018-04-02T23:54:27.909Z,100109.02
2018-04-02T23:56:53.766Z,100109.35
2018-04-02T23:59:19.669Z,100097.97
